FW0659 Weather Reports


Display with metric or nautical units.
time (UTC)temp
F
wind
direction
speed
MPH
gust
MPH
rain 1hr
in
rain 24hr
in
rain mn
in
humidity
%
barometer
mb
20191024000205 47 211 0.0 0.0 0.00 0.05 0.01 71 1017.8
20191023234621 48 211 0.0 0.0 0.00 0.16 0.01 69 1017.6
20191023233048 49 211 0.0 0.0 0.00 0.16 0.01 67 1017.3
20191023231540 50 211 0.0 0.0 0.00 0.16 0.01 64 1017.1
20191023230041 51 211 0.0 0.0 0.00 0.16 0.01 60 1016.6
20191023224615 53 262 0.0 0.0 0.00 0.32 0.01 54 1016.3
20191023223048 56 262 0.0 0.0 0.00 0.32 0.01 45 1016.2
20191023221606 58 263 0.0 1.0 0.00 0.32 0.01 40 1015.7
20191023220048 59 269 2.0 8.0 0.00 0.32 0.01 37 1015.6
20191023214533 59 266 0.0 5.0 0.00 0.48 0.01 37 1015.3
20191023213024 60 281 0.0 14.0 0.00 0.48 0.01 36 1015.0
20191023211514 60 227 3.0 15.0 0.00 0.48 0.01 37 1014.8
20191023210029 60 233 6.0 15.0 0.00 0.48 0.01 37 1014.4
20191023204515 61 212 6.0 15.0 0.00 0.60 0.01 36 1013.8
20191023203012 61 275 9.0 15.0 0.00 0.60 0.01 35 1013.6
20191023201502 61 241 8.0 18.0 0.00 0.60 0.01 37 1013.2
20191023200023 61 259 9.0 18.0 0.00 0.60 0.01 37 1013.2
20191023194620 61 244 3.0 15.0 0.00 0.60 0.01 38 1013.2
20191023194502 61 254 6.0 15.0 0.00 0.60 0.01 37 1013.1
20191023193207 61 229 8.0 23.0 0.00 0.60 0.01 37 1013.1
20191023191708 61 225 9.0 16.0 0.00 0.60 0.01 40 1013.0
20191023190123 61 257 9.0 15.0 0.00 0.60 0.01 42 1012.9
20191023184721 60 285 7.0 13.0 0.00 0.60 0.01 44 1012.9
20191023183236 59 226 9.0 14.0 0.00 0.60 0.01 44 1012.7
20191023181635 59 232 11.0 17.0 0.00 0.60 0.01 44 1012.7
20191023180154 59 315 5.0 15.0 0.00 0.60 0.01 47 1012.8
20191023174625 59 209 6.0 14.0 0.00 0.60 0.01 46 1012.8
20191023173120 58 259 9.0 14.0 0.00 0.60 0.01 47 1012.9
20191023171614 58 255 12.0 22.0 0.00 0.60 0.01 47 1013.1
20191023170115 58 202 10.0 18.0 0.00 0.60 0.01 46 1012.9
20191023164617 58 229 11.0 19.0 0.00 0.60 0.01 46 1012.8
20191023163117 58 219 9.0 18.0 0.00 0.60 0.01 50 1012.7
20191023161605 58 273 7.0 15.0 0.00 0.60 0.01 53 1012.6
20191023160144 57 232 7.0 12.0 0.00 0.60 0.01 58 1012.5
20191023154624 56 224 11.0 16.0 0.00 0.60 0.01 59 1013.0
20191023153107 55 278 3.0 11.0 0.00 0.60 0.01 69 1012.6
20191023151607 54 305 6.0 11.0 0.00 0.60 0.01 72 1012.9
20191023150123 54 218 5.0 10.0 0.00 0.60 0.01 82 1013.0
20191023144603 52 274 2.0 8.0 0.00 0.60 0.01 92 1012.8
20191023143041 51 250 0.0 4.0 0.00 0.60 0.01 94 1012.9
20191023141603 49 242 0.0 5.0 0.00 0.60 0.01 95 1012.7
20191023140035 49 269 0.0 0.0 0.00 0.60 0.01 95 1012.6
20191023134522 48 234 0.0 0.0 0.00 0.60 0.01 95 1012.6
20191023133058 47 234 0.0 0.0 0.00 0.60 0.01 95 1012.6
20191023131527 46 218 0.0 0.0 0.00 0.60 0.01 95 1012.6
20191023130025 46 218 0.0 0.0 0.00 0.60 0.01 95 1012.4
20191023124512 45 218 0.0 0.0 0.00 0.60 0.01 95 1012.4
20191023123039 46 218 0.0 0.0 0.00 0.60 0.01 95 1012.2
20191023121521 45 218 0.0 0.0 0.00 0.60 0.01 95 1012.0
20191023120038 45 218 0.0 0.0 0.00 0.60 0.01 95 1011.7
20191023114515 46 250 0.0 0.0 0.00 0.60 0.01 95 1011.4
20191023113008 46 174 0.0 0.0 0.00 0.60 0.01 95 1011.1
20191023111648 46 208 0.0 0.0 0.00 0.60 0.01 95 1011.0
20191023110243 46 212 0.0 0.0 0.00 0.60 0.01 95 1010.7
20191023104637 46 247 0.0 0.0 0.00 0.60 0.01 95 1010.6
20191023103220 46 247 0.0 0.0 0.01 0.60 0.01 95 1010.6
20191023101829 46 247 0.0 0.0 0.01 0.60 0.01 95 1010.4
20191023100224 46 247 0.0 0.0 0.01 0.60 0.01 95 1010.2
20191023094710 46 247 0.0 0.0 0.01 0.60 0.01 94 1010.0
20191023093209 46 247 0.0 0.0 0.00 0.59 0.00 94 1009.9
20191023091628 46 247 0.0 0.0 0.00 0.59 0.00 94 1009.7
20191023090128 47 254 0.0 0.0 0.00 0.59 0.00 94 1009.5
20191023084619 47 254 0.0 0.0 0.00 0.59 0.00 94 1009.4
20191023083111 48 254 0.0 0.0 0.00 0.59 0.00 94 1009.2
20191023081637 48 254 0.0 0.0 0.00 0.59 0.00 94 1009.2
20191023080159 48 254 0.0 0.0 0.00 0.59 0.00 94 1009.1
20191023074546 48 254 0.0 0.0 0.00 0.59 0.00 94 1009.0
20191023073115 48 254 0.0 0.0 0.00 0.59 0.00 94 1008.9
20191023071625 48 254 0.0 0.0 0.00 0.59 0.00 94 1009.0
20191023070110 48 229 0.0 0.0 0.00 0.59 0.00 94 1009.0
20191023064646 48 229 0.0 0.0 0.00 0.59 0.00 94 1009.1
20191023063107 48 229 0.0 0.0 0.00 0.59 0.00 94 1009.0
20191023061606 48 309 0.0 0.0 0.00 0.59 0.00 94 1008.9
20191023060107 49 309 0.0 0.0 0.00 0.59 0.00 94 1008.7
20191023054624 49 309 0.0 0.0 0.00 0.59 0.00 93 1008.5
20191023053034 50 309 0.0 0.0 0.00 0.59 0.00 93 1008.4
20191023051534 50 309 0.0 0.0 0.00 0.59 0.00 93 1008.2
20191023050032 51 309 0.0 0.0 0.00 0.59 0.00 93 1008.1
20191023044532 51 309 0.0 0.0 0.00 0.59 0.00 93 1008.1
20191023043034 51 309 0.0 0.0 0.00 0.59 0.00 93 1008.1
20191023041516 52 309 0.0 0.0 0.00 0.59 0.00 93 1008.1
20191023040022 52 309 0.0 0.0 0.00 0.59 0.00 93 1008.1
20191023034644 53 309 0.0 0.0 0.00 0.59 0.59 93 1008.1
20191023033013 54 309 0.0 0.0 0.00 0.59 0.59 93 1008.0
20191023031539 54 309 0.0 0.0 0.00 0.59 0.59 93 1008.1
20191023030030 55 309 0.0 0.0 0.00 0.59 0.59 93 1008.1
20191023024507 55 309 0.0 0.0 0.00 0.59 0.59 93 1008.2
20191023023018 55 309 0.0 0.0 0.00 0.59 0.59 93 1008.1
20191023021506 55 309 0.0 0.0 0.00 0.59 0.59 93 1008.2
20191023020007 55 309 0.0 0.0 0.00 0.59 0.59 93 1008.3
20191023014514 56 309 0.0 0.0 0.02 0.59 0.59 93 1008.2
20191023013023 56 309 0.0 0.0 0.03 0.59 0.59 93 1008.2
20191023011505 56 309 0.0 0.0 0.03 0.59 0.59 93 1008.1
20191023010005 56 309 0.0 0.0 0.04 0.59 0.59 93 1008.1
20191023004508 56 309 0.0 0.0 0.04 0.56 0.56 93 1008.1
20191023003006 56 119 0.0 0.0 0.05 0.56 0.56 92 1007.7
20191023001507 56 119 0.0 0.0 0.09 0.56 0.56 92 1007.7